Stinson Beach, CA

12:13 AM PDT on October 22, 2014 (GMT -0700)
Bolinas | Change Station
CLOSE
Current Station
Personal Weather Station
Location: Fairfax, CA
Elevation: 85 ft
Nearby Weather Stations
Active Advisory: Beach Hazard Statement

Elev 85 ft 37.90 °N, 122.69 °W | Updated 1 second ago

Clear
Clear
57.9 °F
Feels Like 57.9 °F
N
2.0
Wind Variable Wind from WNW
Gusts 2.7 mph

Today
High -- | Low -- °F
--% Chance of Precip.
Yesterday
High -- | Low -- °F
Precip. -- in
7:26 AM 6:23 PM
Waning Crescent, 3% visible
Pressure 30.07 in
Visibility 9.0 miles
Clouds Scattered Clouds 300 ft
Mostly Cloudy 1800 ft
Dew Point 55 °F
Humidity 90%
Rainfall 0.00 in
Snow Depth Not available.
UV 0 out of 12
Pollen 2.30 out of 12
Air Quality Not available.
Flu Activity Sporadic
METAR KO69 220655Z AUTO 00000KT 9SM SCT003 BKN018 09/08 A3007 RMK AO1

More Conditions Fewer Conditions

Pressure 30.07 in
Visibility 9.0 miles
Clouds Scattered Clouds 300 ft
Mostly Cloudy 1800 ft
Dew Point 55 °F
Humidity 90%
Rainfall 0.00 in
Snow Depth Not available.
UV 0 out of 12
Pollen 2.30 out of 12
Air Quality Not available.
Flu Activity Sporadic
METAR KO69 220655Z AUTO 00000KT 9SM SCT003 BKN018 09/08 A3007 RMK AO1

More Conditions Fewer Conditions

10-Day Weather Forecast

Almanac

Astronomy

Oct. 22, 2014 Rise Set
Actual Time 7:26 AM PDT 6:23 PM PDT
Civil Twilight 6:59 AM PDT 6:50 PM PDT
Nautical Twilight 6:28 AM PDT 7:20 PM PDT
Astronomical Twilight 5:58 AM PDT 7:51 PM PDT
Moon 6:13 AM PDT 5:52 PM PDT
Length of Visible Light 11h 50m
Length of Day
10h 57m
Tomorrow will be 2m 16s shorter.
Waning Crescent, 3% of the Moon is Illuminated
Today
Waning Crescent
Oct 23
New
Oct 30
First Quarter
Nov 6
Full
Nov 14
Last Quarter

Community

WunderPhotos

Upload Photos

1,763,890 photos uploaded!

Nearby

Snow Depth

Station Depth Elevation
Echo Peak 1 in 7800 ft
Carson Pass 0 in 8500 ft
Forestdale Creek 1 in 8029 ft
Blue Lakes 0 in 8000 ft
Rubicon #2 0 in 7500 ft

Earthquake Activity

City Distance Mag. Time & Date
No recent earthquake activity has been reported nearby.
Minimum magnitude displayed is 2.5.

Coastal Water Temperatures

Place Temperature
Point Reyes, CA 62.1 °F
San Francisco, CA 62.1 °F
Richmond, CA 64.0 °F

Nearby Weather Stations